Mannsville, Oklahoma
Current Conditions -  °F | °C
As of 9:15 PM on Friday 21 Nov 2014 (Local Time) from KADM Reporting Station
Overcast Overcast  
Wind Chill: 63°   Ceiling: 700
Heat Index: 63°   Visibility: 7mi
Dew Point: 61°   Wind: 7mph
Humidity: 94%   Direction: 140°SE
Pressure: 30.07"   Gusts: NA
Location:  34.19°N, 96.88°W
Report Text: KADM 220315Z AUTO 14006KT 7SM OVC007 17/16 A3007 RMK AO2 T01710162
Loading
Personal Weather Stations






























Interactive Weather Map New forecast layout! Learn more

10-Day Weather Forecast

Advertisements
Track Severe Weather on mobile